Time;durP1;ratioP1;P1;durP2;ratioP2;P2;SDS_P1;SDS_P2;PMS_P1;PMS_P2;Temp;Humidity;BMP_temperature;BMP_pressure;BME280_temperature;BME280_humidity;BME280_pressure;Samples;Min_cycle;Max_cycle;Signal;HPM_P1;HPM_P2
2024/01/27 00:00:32;;;;;;;20.25;5.45;;;;;;;3.23;nan;103094.69;10287410;28;20555;-84
2024/01/27 00:05:32;;;;;;;23.95;4.55;;;;;;;3.20;nan;103108.59;10317439;28;20076;-83
2024/01/27 00:10:32;;;;;;;23.80;5.50;;;;;;;3.07;nan;103103.50;10304879;28;20043;-83
2024/01/27 00:15:33;;;;;;;20.70;4.53;;;;;;;3.02;nan;103106.66;10315191;28;20395;-81
2024/01/27 00:20:33;;;;;;;26.67;5.45;;;;;;;2.97;nan;103108.13;10311839;28;20519;-84
2024/01/27 00:25:34;;;;;;;24.13;5.15;;;;;;;2.94;nan;103109.28;10309261;28;20090;-82
2024/01/27 00:30:34;;;;;;;30.23;4.20;;;;;;;2.86;nan;103122.75;10311842;28;20034;-83
2024/01/27 00:35:35;;;;;;;24.30;6.63;;;;;;;2.82;nan;103121.34;10307125;28;20038;-82
2024/01/27 00:40:35;;;;;;;35.92;6.82;;;;;;;2.78;nan;103119.91;10315001;28;20034;-84
2024/01/27 00:45:36;;;;;;;18.60;4.75;;;;;;;2.79;nan;103117.06;10307997;28;20066;-84
2024/01/27 00:50:36;;;;;;;34.15;4.40;;;;;;;2.79;nan;103121.63;10314580;28;20112;-84
2024/01/27 00:55:37;;;;;;;22.55;5.93;;;;;;;2.82;nan;103129.50;10301004;28;20054;-82
2024/01/27 01:00:37;;;;;;;44.53;5.97;;;;;;;2.81;nan;103136.81;10313851;28;20042;-81
2024/01/27 01:05:37;;;;;;;30.67;5.18;;;;;;;2.69;nan;103124.38;10310084;28;20042;-81
2024/01/27 01:10:38;;;;;;;24.77;3.88;;;;;;;2.71;nan;103155.03;10321506;28;20086;-82
2024/01/27 01:15:39;;;;;;;32.17;4.90;;;;;;;2.69;nan;103153.44;10318628;28;20042;-82
2024/01/27 01:20:40;;;;;;;30.55;5.85;;;;;;;2.62;nan;103148.59;10312080;28;20050;-81
2024/01/27 01:25:41;;;;;;;30.52;5.80;;;;;;;2.59;nan;103148.88;10295530;28;20030;-82
2024/01/27 01:30:41;;;;;;;23.40;6.28;;;;;;;2.56;nan;103143.75;10291447;28;20198;-81
2024/01/27 01:35:42;;;;;;;33.90;6.35;;;;;;;2.54;nan;103151.19;10295341;28;20043;-83
2024/01/27 01:40:42;;;;;;;29.88;7.20;;;;;;;2.46;nan;103151.06;10295563;28;20269;-82
2024/01/27 01:45:43;;;;;;;25.67;4.43;;;;;;;2.41;nan;103156.06;10295013;28;20066;-82
2024/01/27 01:50:43;;;;;;;31.15;6.18;;;;;;;2.37;nan;103165.50;10302965;28;20042;-81
2024/01/27 01:55:46;;;;;;;26.45;4.85;;;;;;;2.22;nan;103146.91;10289023;28;20533;-82
2024/01/27 02:00:46;;;;;;;31.10;5.82;;;;;;;2.24;nan;103159.50;10296176;28;20050;-82
2024/01/27 02:05:47;;;;;;;28.05;4.85;;;;;;;2.19;nan;103163.50;10299568;28;20074;-82
2024/01/27 02:10:47;;;;;;;25.83;3.70;;;;;;;2.17;nan;103165.50;10315957;28;20179;-82
2024/01/27 02:15:49;;;;;;;23.90;5.35;;;;;;;2.15;nan;103161.19;10304044;28;20041;-82
2024/01/27 02:20:49;;;;;;;24.40;4.53;;;;;;;2.08;nan;103150.03;10297027;28;20039;-82
2024/01/27 02:25:50;;;;;;;19.08;4.90;;;;;;;2.07;nan;103153.78;10324083;28;20256;-82
2024/01/27 02:30:51;;;;;;;16.50;4.72;;;;;;;1.99;nan;103153.63;10302898;28;20030;-84
2024/01/27 02:35:51;;;;;;;22.95;3.58;;;;;;;1.71;nan;103106.41;10299755;28;20106;-83
2024/01/27 02:40:51;;;;;;;28.23;5.40;;;;;;;1.98;nan;103165.47;10315906;28;20047;-82
2024/01/27 02:45:52;;;;;;;29.80;4.07;;;;;;;1.95;nan;103160.34;10304284;28;20046;-82
2024/01/27 02:50:53;;;;;;;21.65;3.97;;;;;;;1.95;nan;103155.75;10303943;28;20038;-82
2024/01/27 02:55:54;;;;;;;21.45;4.53;;;;;;;1.94;nan;103164.94;10307362;28;20511;-81
2024/01/27 03:00:54;;;;;;;23.40;5.55;;;;;;;1.99;nan;103172.66;10318005;28;20070;-82
2024/01/27 03:05:54;;;;;;;16.02;3.35;;;;;;;1.94;nan;103170.34;10319984;28;20588;-82
2024/01/27 03:10:55;;;;;;;24.25;5.47;;;;;;;1.94;nan;103164.03;10305441;28;20146;-81
2024/01/27 03:15:55;;;;;;;20.80;4.28;;;;;;;1.84;nan;103169.47;10296638;28;20030;-82
2024/01/27 03:20:56;;;;;;;28.40;4.03;;;;;;;1.80;nan;103157.19;10286077;28;20049;-82
2024/01/27 03:25:56;;;;;;;25.17;4.20;;;;;;;1.84;nan;103163.16;10317629;28;20062;-81
2024/01/27 03:30:59;;;;;;;25.45;6.03;;;;;;;1.78;nan;103149.16;10307555;28;20057;-82
2024/01/27 03:35:59;;;;;;;21.63;4.60;;;;;;;1.82;nan;103152.47;10315238;28;20049;-82
2024/01/27 03:41:00;;;;;;;24.55;4.63;;;;;;;1.98;nan;103160.91;10320771;28;20045;-82
2024/01/27 03:46:00;;;;;;;21.05;6.15;;;;;;;1.98;nan;103174.47;10307475;28;20045;-84
2024/01/27 03:51:01;;;;;;;22.15;4.72;;;;;;;1.90;nan;103146.31;10313985;28;20083;-82
2024/01/27 03:56:02;;;;;;;16.33;3.55;;;;;;;1.96;nan;103160.22;10319987;28;20593;-82
2024/01/27 04:01:03;;;;;;;15.82;3.95;;;;;;;1.97;nan;103172.78;10306013;28;20043;-82
2024/01/27 04:06:04;;;;;;;16.02;2.97;;;;;;;1.94;nan;103164.94;10315577;28;20034;-82
2024/01/27 04:11:04;;;;;;;22.33;4.35;;;;;;;1.84;nan;103163.16;10315747;28;20102;-82
2024/01/27 04:16:05;;;;;;;17.35;3.33;;;;;;;1.87;nan;103184.63;10278796;28;20055;-82
2024/01/27 04:21:06;;;;;;;30.25;3.42;;;;;;;1.69;nan;103166.28;10310831;28;20098;-75
2024/01/27 04:26:06;;;;;;;15.27;4.20;;;;;;;1.71;nan;103180.59;10328915;28;20043;-81
2024/01/27 04:31:07;;;;;;;18.13;3.47;;;;;;;1.63;nan;103188.56;10318592;28;20124;-84
2024/01/27 04:36:08;;;;;;;18.52;4.35;;;;;;;1.44;nan;103167.66;10281747;28;20047;-81
2024/01/27 04:41:08;;;;;;;30.45;4.22;;;;;;;1.55;nan;103185.69;10313597;28;20073;-82
2024/01/27 04:46:09;;;;;;;20.80;3.05;;;;;;;1.56;nan;103187.41;10316097;28;20046;-81
2024/01/27 04:51:09;;;;;;;32.17;4.35;;;;;;;1.56;nan;103192.84;10301817;28;20047;-82
2024/01/27 04:56:12;;;;;;;33.28;5.25;;;;;;;1.26;nan;103156.59;10307961;28;20427;-81
2024/01/27 05:01:13;;;;;;;17.75;4.15;;;;;;;1.39;nan;103180.78;10311347;28;20084;-82
2024/01/27 05:06:13;;;;;;;24.08;4.57;;;;;;;1.35;nan;103146.78;10317766;28;20042;-82
2024/01/27 05:11:15;;;;;;;24.25;4.20;;;;;;;1.37;nan;103153.78;10311195;28;20103;-82
2024/01/27 05:16:15;;;;;;;16.45;4.05;;;;;;;1.29;nan;103134.59;10308059;28;20042;-83
2024/01/27 05:21:16;;;;;;;19.20;3.38;;;;;;;1.42;nan;103156.91;10320559;28;20050;-82
2024/01/27 05:26:16;;;;;;;17.42;3.45;;;;;;;1.47;nan;103164.66;10319629;28;20046;-71
2024/01/27 05:31:17;;;;;;;19.23;3.38;;;;;;;1.42;nan;103175.91;10315437;28;20058;-81
2024/01/27 05:36:17;;;;;;;16.60;2.92;;;;;;;1.46;nan;103170.22;10323659;28;20046;-82
2024/01/27 05:41:18;;;;;;;21.30;4.07;;;;;;;1.32;nan;103158.72;10321049;28;20069;-81
2024/01/27 05:46:18;;;;;;;24.50;6.97;;;;;;;1.39;nan;103170.78;10310750;28;20053;-82
2024/01/27 05:51:22;;;;;;;21.20;4.28;;;;;;;1.36;nan;103176.47;10319965;28;20108;-81
2024/01/27 05:56:22;;;;;;;17.87;4.00;;;;;;;1.24;nan;103171.28;10310186;28;20070;-82
2024/01/27 06:01:23;;;;;;;18.33;4.20;;;;;;;1.33;nan;103201.19;10321582;28;20456;-81
2024/01/27 06:06:23;;;;;;;19.98;3.72;;;;;;;1.23;nan;103192.13;10322410;28;20437;-81
2024/01/27 06:11:24;;;;;;;21.85;4.78;;;;;;;1.29;nan;103207.88;10309603;28;20395;-82
2024/01/27 06:16:25;;;;;;;20.52;4.20;;;;;;;1.24;nan;103209.25;10317536;28;20047;-83
2024/01/27 06:21:26;;;;;;;16.60;4.07;;;;;;;1.21;nan;103210.41;10316581;28;20070;-81
2024/01/27 06:26:26;;;;;;;22.77;4.07;;;;;;;1.15;nan;103197.38;10324209;28;20053;-81
2024/01/27 06:31:27;;;;;;;15.85;4.15;;;;;;;1.13;nan;103230.06;10313584;28;20051;-80
2024/01/27 06:36:27;;;;;;;19.40;3.70;;;;;;;1.13;nan;103234.63;10324103;28;20043;-81
2024/01/27 06:41:27;;;;;;;20.55;4.28;;;;;;;1.11;nan;103210.34;10322681;28;20039;-81
2024/01/27 06:46:28;;;;;;;20.00;4.95;;;;;;;1.00;nan;103197.72;10293928;28;20031;-82
2024/01/27 06:51:28;;;;;;;30.93;6.87;;;;;;;1.03;nan;103220.16;10319511;28;20061;-81
2024/01/27 06:56:29;;;;;;;21.88;4.47;;;;;;;0.99;nan;103214.13;10318960;28;20438;-81
2024/01/27 07:01:29;;;;;;;38.88;6.20;;;;;;;1.03;nan;103206.59;10294396;28;20473;-81
2024/01/27 07:06:30;;;;;;;25.60;5.78;;;;;;;1.09;nan;103227.75;10302523;28;20439;-82
2024/01/27 07:11:30;;;;;;;18.83;3.90;;;;;;;1.11;nan;103220.34;10318874;28;20053;-71
2024/01/27 07:16:32;;;;;;;21.35;5.40;;;;;;;1.09;nan;103222.31;10336803;28;20149;-81
2024/01/27 07:21:32;;;;;;;25.95;6.47;;;;;;;1.08;nan;103236.91;10305707;28;20039;-81
2024/01/27 07:26:33;;;;;;;21.08;5.63;;;;;;;1.01;nan;103212.13;10320309;28;20039;-81
2024/01/27 07:31:33;;;;;;;25.83;7.97;;;;;;;1.09;nan;103216.91;10320210;28;20046;-81
2024/01/27 07:36:34;;;;;;;31.05;6.85;;;;;;;1.18;nan;103224.25;10297132;28;20038;-81
2024/01/27 07:41:35;;;;;;;20.23;7.35;;;;;;;1.25;nan;103228.13;10316301;28;20054;-81
2024/01/27 07:46:37;;;;;;;24.15;5.38;;;;;;;1.24;nan;103226.44;10307607;28;20042;-81
2024/01/27 07:51:37;;;;;;;28.58;6.78;;;;;;;1.29;nan;103229.59;10286196;28;20038;-82
2024/01/27 07:56:38;;;;;;;21.80;5.75;;;;;;;1.37;nan;103224.34;10309569;28;20051;-80
2024/01/27 08:01:38;;;;;;;28.27;6.95;;;;;;;1.37;nan;103210.78;10300160;28;20058;-82
2024/01/27 08:06:49;;;;;;;26.90;6.07;;;;;;;1.52;nan;103218.53;10315098;28;20031;-81
2024/01/27 08:11:52;;;;;;;28.40;6.22;;;;;;;1.67;nan;103243.47;10308550;28;20058;-81
2024/01/27 08:16:52;;;;;;;32.50;7.25;;;;;;;1.64;nan;103222.03;10329891;28;20038;-81
2024/01/27 08:21:53;;;;;;;22.27;6.05;;;;;;;1.85;nan;103257.25;10313613;28;20109;-81
2024/01/27 08:26:53;;;;;;;21.85;7.00;;;;;;;1.88;nan;103243.38;10316154;28;20084;-82
2024/01/27 08:31:54;;;;;;;19.67;7.22;;;;;;;1.96;nan;103260.72;10316658;28;20035;-82
2024/01/27 08:37:00;;;;;;;26.58;6.07;;;;;;;2.10;nan;103266.75;10303844;28;20422;-80
2024/01/27 08:42:00;;;;;;;27.83;7.13;;;;;;;2.17;nan;103274.22;10315254;28;20051;-82
2024/01/27 08:47:01;;;;;;;17.27;6.10;;;;;;;2.27;nan;103278.81;10314048;28;20046;-82
2024/01/27 08:52:01;;;;;;;26.75;7.82;;;;;;;2.33;nan;103272.81;10316911;28;20035;-81
2024/01/27 08:57:02;;;;;;;32.95;8.13;;;;;;;2.37;nan;103268.81;10301946;28;20062;-82
2024/01/27 09:02:03;;;;;;;33.05;9.23;;;;;;;2.48;nan;103285.00;10305755;28;20445;-82
2024/01/27 09:07:03;;;;;;;23.92;7.50;;;;;;;2.60;nan;103286.59;10309925;28;20043;-81
2024/01/27 09:12:04;;;;;;;27.17;7.72;;;;;;;2.56;nan;103267.97;10317200;28;20045;-81
2024/01/27 09:17:04;;;;;;;18.95;7.50;;;;;;;2.73;nan;103285.41;10310668;28;20066;-81
2024/01/27 09:22:05;;;;;;;25.17;7.72;;;;;;;2.78;nan;103294.88;10303629;28;20042;-73
2024/01/27 09:27:05;;;;;;;28.13;9.90;;;;;;;2.87;nan;103304.03;10299195;28;20054;-80
2024/01/27 09:32:05;;;;;;;22.75;9.15;;;;;;;3.02;nan;103312.66;10310398;28;20039;-81
2024/01/27 09:37:06;;;;;;;21.42;8.05;;;;;;;2.81;nan;103261.97;10313788;28;20103;-81
2024/01/27 09:42:07;;;;;;;22.75;8.52;;;;;;;3.24;nan;103311.44;10299377;28;20046;-80
2024/01/27 09:47:07;;;;;;;23.58;10.13;;;;;;;3.34;nan;103312.28;10296378;28;20038;-81
2024/01/27 09:52:08;;;;;;;21.60;7.95;;;;;;;3.44;nan;103299.50;10281362;28;20031;-82
2024/01/27 09:57:09;;;;;;;21.02;8.00;;;;;;;3.65;nan;103328.41;10272222;28;20035;-81
2024/01/27 10:02:09;;;;;;;20.48;7.78;;;;;;;3.78;nan;103315.34;10266085;28;20083;-81
2024/01/27 10:07:10;;;;;;;12.30;6.38;;;;;;;3.91;nan;103325.91;10289238;28;20138;-80
2024/01/27 10:12:10;;;;;;;20.45;6.90;;;;;;;4.07;nan;103327.94;10302156;28;20038;-72
2024/01/27 10:17:11;;;;;;;20.33;7.38;;;;;;;4.11;nan;103321.19;10307607;28;20042;-80
2024/01/27 10:22:12;;;;;;;25.90;6.32;;;;;;;4.36;nan;103340.56;10287167;28;20055;-80
2024/01/27 10:27:12;;;;;;;22.02;6.85;;;;;;;4.31;nan;103310.19;10295783;28;20539;-80
2024/01/27 10:32:13;;;;;;;20.08;6.00;;;;;;;4.72;nan;103348.84;10296150;28;20538;-80
2024/01/27 10:37:13;;;;;;;24.60;5.22;;;;;;;4.94;nan;103372.94;10305082;28;20499;-80
2024/01/27 10:42:14;;;;;;;21.88;6.53;;;;;;;4.99;nan;103351.47;10290914;28;20492;-80
2024/01/27 10:47:17;;;;;;;17.73;5.40;;;;;;;5.24;nan;103355.28;10298071;28;20039;-80
2024/01/27 10:52:17;;;;;;;18.30;5.35;;;;;;;5.33;nan;103356.19;10292134;28;20046;-80
2024/01/27 10:57:18;;;;;;;20.13;5.72;;;;;;;5.53;nan;103359.59;10271033;28;20494;-81
2024/01/27 11:02:18;;;;;;;13.38;6.18;;;;;;;5.67;nan;103363.63;10292364;28;20051;-80
2024/01/27 11:07:20;;;;;;;18.77;5.68;;;;;;;5.71;nan;103365.03;10300360;28;20047;-81
2024/01/27 11:12:21;;;;;;;16.98;5.15;;;;;;;5.67;nan;103355.44;10295903;28;20106;-81
2024/01/27 11:17:22;;;;;;;14.50;5.07;;;;;;;5.74;nan;103370.16;10283240;28;20055;-81
2024/01/27 11:22:26;;;;;;;19.75;6.22;;;;;;;6.02;nan;103367.28;10273870;28;20054;-81
2024/01/27 11:27:29;;;;;;;18.98;6.75;;;;;;;6.20;nan;103354.41;10307779;28;20054;-81
2024/01/27 11:32:30;;;;;;;23.55;5.38;;;;;;;6.43;nan;103362.84;10285068;28;20039;-80
2024/01/27 11:37:31;;;;;;;18.90;6.72;;;;;;;6.54;nan;103367.16;10298549;28;20479;-81
2024/01/27 11:42:31;;;;;;;22.00;5.68;;;;;;;6.74;nan;103362.25;10306060;28;20058;-80
2024/01/27 11:47:31;;;;;;;21.48;6.35;;;;;;;6.97;nan;103362.47;10285059;28;20039;-81
2024/01/27 11:52:32;;;;;;;25.73;6.05;;;;;;;7.09;nan;103365.75;10311535;28;20042;-80
2024/01/27 11:57:32;;;;;;;17.40;5.25;;;;;;;7.31;nan;103353.22;10291989;28;20046;-80
2024/01/27 12:02:33;;;;;;;20.27;5.10;;;;;;;7.34;nan;103350.16;10292424;28;20042;-80
2024/01/27 12:07:34;;;;;;;13.98;4.78;;;;;;;7.61;nan;103342.59;10304334;28;20134;-80
2024/01/27 12:12:35;;;;;;;12.25;4.68;;;;;;;7.56;nan;103347.72;10299176;28;20065;-82
2024/01/27 12:17:35;;;;;;;23.35;6.00;;;;;;;7.12;nan;103315.22;10292878;28;20054;-78
2024/01/27 12:22:37;;;;;;;24.92;8.65;;;;;;;7.63;nan;103343.28;10292916;28;20131;-80
2024/01/27 12:27:41;;;;;;;28.15;8.00;;;;;;;7.45;nan;103333.34;10290410;28;20035;-81
2024/01/27 12:32:42;;;;;;;16.15;5.00;;;;;;;7.79;nan;103335.00;10304664;28;20038;-81
2024/01/27 12:37:43;;;;;;;16.08;4.50;;;;;;;7.98;nan;103347.47;10312765;28;20035;-82
2024/01/27 12:42:43;;;;;;;20.20;6.72;;;;;;;8.16;nan;103341.72;10265818;28;20066;-81
2024/01/27 12:47:44;;;;;;;20.02;5.97;;;;;;;8.21;nan;103339.31;10301113;28;20046;-79
2024/01/27 12:52:44;;;;;;;20.13;4.38;;;;;;;8.29;nan;103342.03;10321618;28;20434;-82
2024/01/27 12:57:46;;;;;;;11.85;3.40;;;;;;;8.65;nan;103333.28;10306065;28;20046;-81
2024/01/27 13:02:46;;;;;;;16.02;4.13;;;;;;;8.82;nan;103346.91;10320513;28;20077;-84
2024/01/27 13:07:48;;;;;;;15.40;3.72;;;;;;;8.94;nan;103342.69;10293496;28;20046;-86
2024/01/27 13:12:48;;;;;;;16.13;3.35;;;;;;;8.88;nan;103319.53;10297408;28;20042;-84
2024/01/27 13:17:49;;;;;;;21.20;4.18;;;;;;;9.12;nan;103325.06;10301676;28;20065;-76
2024/01/27 13:22:49;;;;;;;18.10;4.47;;;;;;;9.89;nan;103325.63;10289582;28;20046;-81
2024/01/27 13:27:50;;;;;;;14.77;3.75;;;;;;;10.35;nan;103329.25;10308724;28;20038;-80
2024/01/27 13:32:50;;;;;;;16.80;5.28;;;;;;;10.54;nan;103314.84;10290849;28;20038;-80
2024/01/27 13:37:51;;;;;;;13.50;3.92;;;;;;;10.23;nan;103302.19;10292285;28;20039;-81
2024/01/27 13:42:53;;;;;;;16.77;4.68;;;;;;;9.98;nan;103331.03;10302831;28;20046;-82
2024/01/27 13:47:53;;;;;;;23.48;4.93;;;;;;;9.40;nan;103333.56;10312066;28;20388;-83
2024/01/27 13:52:54;;;;;;;17.30;4.50;;;;;;;9.28;nan;103349.63;10298449;28;20043;-84
2024/01/27 13:57:54;;;;;;;18.13;5.45;;;;;;;8.92;nan;103347.53;10300982;28;20119;-83
2024/01/27 14:02:55;;;;;;;22.25;6.05;;;;;;;8.82;nan;103368.88;10295814;28;20070;-82
2024/01/27 14:07:55;;;;;;;12.52;4.75;;;;;;;8.64;nan;103342.56;10309857;28;20705;-72
2024/01/27 14:12:55;;;;;;;14.77;4.50;;;;;;;8.63;nan;103335.34;10334397;28;20537;-83
2024/01/27 14:17:56;;;;;;;15.43;4.50;;;;;;;8.79;nan;103345.38;10324007;28;20026;-83
2024/01/27 14:22:57;;;;;;;11.23;3.92;;;;;;;8.78;nan;103326.31;10292908;28;20121;-83
2024/01/27 14:27:58;;;;;;;16.73;5.18;;;;;;;8.61;nan;103328.34;10320000;28;20065;-82
2024/01/27 14:32:58;;;;;;;19.40;3.70;;;;;;;8.50;nan;103332.34;10305347;28;20042;-83
2024/01/27 14:38:00;;;;;;;16.08;3.45;;;;;;;8.24;nan;103338.94;10315888;28;20034;-82
2024/01/27 14:43:08;;;;;;;11.80;3.28;;;;;;;8.17;nan;103350.84;10303503;28;20402;-82
2024/01/27 14:48:08;;;;;;;14.90;5.05;;;;;;;7.81;nan;103341.19;10314900;28;20062;-82
2024/01/27 14:53:08;;;;;;;12.80;4.70;;;;;;;7.67;nan;103347.38;10329047;28;20042;-82
2024/01/27 14:58:09;;;;;;;17.15;5.07;;;;;;;7.46;nan;103348.78;10309848;28;20039;-81
2024/01/27 15:03:11;;;;;;;17.70;3.72;;;;;;;7.38;nan;103358.88;10300016;28;20065;-82
2024/01/27 15:08:12;;;;;;;21.60;4.88;;;;;;;7.04;nan;103311.44;10318761;28;20062;-80
2024/01/27 15:13:12;;;;;;;18.00;5.20;;;;;;;7.14;nan;103351.53;10313566;28;20043;-80
2024/01/27 15:18:13;;;;;;;16.65;3.95;;;;;;;6.89;nan;103365.19;10321258;28;20034;-76
2024/01/27 15:23:13;;;;;;;18.73;4.80;;;;;;;6.69;nan;103363.78;10305747;28;20105;-86
2024/01/27 15:28:14;;;;;;;11.80;5.00;;;;;;;6.47;nan;103360.66;10314724;28;20039;-82
2024/01/27 15:33:14;;;;;;;11.95;3.72;;;;;;;6.28;nan;103364.50;10287996;28;20038;-81
2024/01/27 15:38:15;;;;;;;19.60;4.55;;;;;;;6.06;nan;103358.59;10312450;28;20074;-81
2024/01/27 15:43:15;;;;;;;12.57;4.32;;;;;;;5.95;nan;103377.16;10307833;28;20380;-81
2024/01/27 15:48:16;;;;;;;18.75;4.75;;;;;;;5.76;nan;103356.34;10298910;28;20054;-81
2024/01/27 15:53:16;;;;;;;15.98;4.15;;;;;;;5.55;nan;103353.97;10288354;28;20042;-82
2024/01/27 15:58:17;;;;;;;14.32;4.57;;;;;;;5.34;nan;103357.09;10286224;28;20046;-81
2024/01/27 16:03:17;;;;;;;16.55;4.35;;;;;;;5.15;nan;103369.91;10292100;28;20047;-82
2024/01/27 16:08:18;;;;;;;23.73;5.13;;;;;;;4.96;nan;103376.38;10309351;28;20039;-82
2024/01/27 16:13:19;;;;;;;17.05;5.22;;;;;;;4.84;nan;103399.47;10318942;28;20035;-81
2024/01/27 16:18:19;;;;;;;16.17;4.05;;;;;;;4.69;nan;103384.59;10314550;28;20118;-83
2024/01/27 16:23:20;;;;;;;12.68;4.22;;;;;;;4.54;nan;103393.31;10318003;28;20050;-75
2024/01/27 16:28:20;;;;;;;21.15;4.93;;;;;;;4.26;nan;103389.75;10317603;28;20038;-81
2024/01/27 16:33:21;;;;;;;13.75;4.35;;;;;;;4.07;nan;103396.09;10316227;28;20062;-82
2024/01/27 16:38:21;;;;;;;25.15;4.47;;;;;;;3.73;nan;103377.56;10308327;28;20043;-81
2024/01/27 16:43:22;;;;;;;14.90;5.35;;;;;;;3.61;nan;103395.09;10307971;28;20058;-81
2024/01/27 16:48:23;;;;;;;17.80;5.05;;;;;;;3.38;nan;103389.97;10312777;28;20463;-81
2024/01/27 16:53:25;;;;;;;22.23;5.78;;;;;;;3.22;nan;103378.81;10311842;28;20454;-83
2024/01/27 16:58:25;;;;;;;26.25;7.05;;;;;;;3.13;nan;103385.13;10314160;28;20034;-83
2024/01/27 17:03:26;;;;;;;20.58;5.78;;;;;;;2.92;nan;103375.22;10313285;28;20035;-82
2024/01/27 17:08:27;;;;;;;16.30;6.60;;;;;;;2.95;nan;103402.13;10315652;28;20049;-82
2024/01/27 17:13:29;;;;;;;24.02;6.93;;;;;;;2.73;nan;103406.00;10318658;28;20046;-82
2024/01/27 17:18:29;;;;;;;23.02;7.57;;;;;;;2.66;nan;103401.25;10328036;28;20039;-83
2024/01/27 17:23:30;;;;;;;19.45;7.82;;;;;;;2.72;nan;103403.41;10307750;28;20043;-83
2024/01/27 17:28:31;;;;;;;22.15;6.65;;;;;;;2.87;nan;103418.31;10308152;28;20031;-79
2024/01/27 17:33:31;;;;;;;25.60;6.43;;;;;;;2.86;nan;103416.59;10315588;28;20053;-81
2024/01/27 17:38:32;;;;;;;16.35;5.90;;;;;;;2.78;nan;103402.84;10310283;28;20050;-83
2024/01/27 17:43:33;;;;;;;16.20;6.45;;;;;;;2.67;nan;103397.50;10297400;28;20059;-83
2024/01/27 17:48:34;;;;;;;17.25;5.65;;;;;;;2.48;nan;103395.59;10310045;28;20045;-82
2024/01/27 17:53:34;;;;;;;19.67;5.60;;;;;;;2.38;nan;103392.88;10298371;28;20046;-82
2024/01/27 17:58:35;;;;;;;18.95;6.18;;;;;;;2.40;nan;103404.47;10318683;28;20364;-81
2024/01/27 18:03:36;;;;;;;21.90;6.32;;;;;;;2.21;nan;103383.50;10296940;28;20042;-82
2024/01/27 18:08:36;;;;;;;17.88;6.00;;;;;;;2.25;nan;103395.81;10314861;28;20046;-82
2024/01/27 18:13:37;;;;;;;14.85;5.72;;;;;;;2.18;nan;103389.22;10311656;28;20054;-82
2024/01/27 18:18:37;;;;;;;22.98;7.53;;;;;;;2.13;nan;103396.91;10309591;28;20070;-81
2024/01/27 18:23:38;;;;;;;20.20;6.30;;;;;;;1.85;nan;103387.63;10313076;28;20063;-80
2024/01/27 18:28:39;;;;;;;14.75;5.30;;;;;;;1.83;nan;103405.94;10311201;28;20128;-82
2024/01/27 18:33:39;;;;;;;18.02;7.88;;;;;;;1.80;nan;103396.19;10318446;28;20045;-80
2024/01/27 18:38:40;;;;;;;15.95;6.93;;;;;;;1.71;nan;103406.00;10317841;28;20505;-82
2024/01/27 18:43:40;;;;;;;13.48;5.80;;;;;;;1.56;nan;103407.31;10319080;28;20042;-81
2024/01/27 18:48:43;;;;;;;25.10;7.35;;;;;;;1.36;nan;103418.03;10313349;28;20045;-84
2024/01/27 18:53:45;;;;;;;15.35;6.20;;;;;;;1.03;nan;103412.75;10304047;28;20043;-87
2024/01/27 18:58:46;;;;;;;13.65;6.82;;;;;;;0.92;nan;103409.09;10318398;28;20043;-87
2024/01/27 19:03:46;;;;;;;12.15;5.78;;;;;;;0.79;nan;103428.25;10321867;28;20042;-85
2024/01/27 19:08:47;;;;;;;21.90;7.95;;;;;;;0.78;nan;103425.66;10318868;28;20561;-86
2024/01/27 19:13:47;;;;;;;27.00;8.60;;;;;;;0.77;nan;103429.38;10275466;28;20485;-87
2024/01/27 19:18:48;;;;;;;18.38;8.38;;;;;;;0.88;nan;103421.19;10309724;28;20054;-86
2024/01/27 19:23:48;;;;;;;30.55;9.15;;;;;;;1.08;nan;103421.38;10282380;28;20161;-88
2024/01/27 19:28:50;;;;;;;25.33;9.63;;;;;;;0.87;nan;103372.47;10323540;28;20045;-85
2024/01/27 19:33:50;;;;;;;24.48;8.98;;;;;;;1.18;nan;103420.47;10319031;28;20328;-86
2024/01/27 19:38:50;;;;;;;24.30;9.32;;;;;;;1.25;nan;103428.09;10301282;28;20057;-87
2024/01/27 19:43:51;;;;;;;20.60;9.60;;;;;;;1.27;nan;103432.41;10327823;28;20047;-86
2024/01/27 19:48:51;;;;;;;37.83;10.70;;;;;;;1.27;nan;103424.25;10308756;28;20034;-87
2024/01/27 19:53:52;;;;;;;21.10;9.57;;;;;;;1.39;nan;103425.94;10306687;28;20102;-87
2024/01/27 19:58:52;;;;;;;21.63;9.93;;;;;;;1.46;nan;103430.84;10307267;28;20043;-86
2024/01/27 20:03:53;;;;;;;27.73;9.48;;;;;;;1.38;nan;103413.31;10319101;28;20046;-87
2024/01/27 20:08:53;;;;;;;21.73;9.07;;;;;;;1.16;nan;103367.34;10318889;28;20108;-87
2024/01/27 20:13:54;;;;;;;20.63;8.00;;;;;;;1.49;nan;103414.25;10277284;28;20038;-87
2024/01/27 20:18:54;;;;;;;26.30;9.82;;;;;;;1.40;nan;103405.06;10319547;28;20046;-75
2024/01/27 20:23:55;;;;;;;17.35;8.00;;;;;;;1.41;nan;103418.50;10288496;28;20038;-87
2024/01/27 20:28:55;;;;;;;23.08;9.43;;;;;;;1.37;nan;103411.63;10316702;28;20061;-87
2024/01/27 20:33:57;;;;;;;19.17;8.63;;;;;;;1.26;nan;103395.41;10282260;28;20035;-87
2024/01/27 20:38:57;;;;;;;23.45;8.30;;;;;;;1.12;nan;103396.56;10313971;28;20062;-87
2024/01/27 20:43:59;;;;;;;23.95;10.35;;;;;;;0.98;nan;103400.44;10307887;28;20070;-87
2024/01/27 20:49:00;;;;;;;25.80;9.52;;;;;;;0.76;nan;103363.41;10287054;28;20114;-86
2024/01/27 20:54:00;;;;;;;18.73;9.45;;;;;;;0.74;nan;103378.09;10281868;28;20047;-86
2024/01/27 20:59:01;;;;;;;22.85;9.85;;;;;;;0.68;nan;103386.72;10302873;28;20503;-86
2024/01/27 21:04:01;;;;;;;20.17;10.05;;;;;;;0.67;nan;103393.16;10306496;28;20055;-86
2024/01/27 21:09:03;;;;;;;28.00;11.07;;;;;;;0.46;nan;103380.38;10288352;28;20038;-87
2024/01/27 21:14:05;;;;;;;28.40;12.98;;;;;;;0.49;nan;103403.66;10300573;28;20039;-86
2024/01/27 21:19:06;;;;;;;26.50;10.80;;;;;;;0.34;nan;103400.34;10304328;28;20054;-86
2024/01/27 21:24:08;;;;;;;23.67;12.10;;;;;;;0.24;nan;103388.53;10288763;28;20056;-86
2024/01/27 21:29:09;;;;;;;33.70;12.87;;;;;;;0.11;nan;103361.56;10302414;28;20104;-86
2024/01/27 21:34:09;;;;;;;27.98;12.98;;;;;;;0.35;nan;103364.13;10308425;28;20453;-81
2024/01/27 21:39:10;;;;;;;34.65;14.02;;;;;;;0.56;nan;103361.50;10317471;28;20047;-88
2024/01/27 21:44:11;;;;;;;27.97;13.50;;;;;;;0.51;nan;103348.31;10304134;28;20046;-86
2024/01/27 21:49:12;;;;;;;26.40;12.75;;;;;;;0.59;nan;103363.97;10319400;28;20414;-86
2024/01/27 21:54:12;;;;;;;22.10;12.18;;;;;;;0.48;nan;103342.31;10294443;28;20039;-87
2024/01/27 21:59:13;;;;;;;28.30;13.32;;;;;;;0.36;nan;103363.16;10308832;28;20083;-87
2024/01/27 22:04:14;;;;;;;25.95;11.65;;;;;;;0.18;nan;103352.81;10304881;28;20053;-86
2024/01/27 22:09:15;;;;;;;24.80;11.20;;;;;;;0.01;nan;103349.75;10307721;28;20047;-86
2024/01/27 22:14:16;;;;;;;35.40;14.48;;;;;;;-0.05;nan;103383.59;10320180;28;20046;-86
2024/01/27 22:19:16;;;;;;;25.53;13.43;;;;;;;-0.18;nan;103362.06;10301548;28;20069;-87
2024/01/27 22:24:17;;;;;;;29.13;13.50;;;;;;;-0.47;nan;103323.78;10297777;28;20061;-86
2024/01/27 22:29:17;;;;;;;26.88;15.20;;;;;;;-0.30;nan;103369.31;10322007;28;20070;-86
2024/01/27 22:34:18;;;;;;;27.10;13.17;;;;;;;-0.38;nan;103363.63;10299157;28;20050;-87
2024/01/27 22:39:18;;;;;;;34.57;12.23;;;;;;;-0.47;nan;103358.97;10288776;28;20051;-87
2024/01/27 22:44:19;;;;;;;25.73;12.97;;;;;;;-0.55;nan;103347.88;10318408;28;20073;-87
2024/01/27 22:49:19;;;;;;;27.63;12.60;;;;;;;-0.66;nan;103354.97;10320672;28;20047;-87
2024/01/27 22:54:20;;;;;;;25.23;13.23;;;;;;;-0.81;nan;103342.63;10320756;28;20062;-87
2024/01/27 22:59:20;;;;;;;33.92;14.32;;;;;;;-0.85;nan;103346.56;10312279;28;20049;-88
2024/01/27 23:04:21;;;;;;;36.77;17.60;;;;;;;-0.93;nan;103354.38;10313582;28;20055;-88
2024/01/27 23:09:21;;;;;;;31.33;15.87;;;;;;;-0.95;nan;103329.31;10286515;28;20034;-88
2024/01/27 23:14:22;;;;;;;30.03;14.50;;;;;;;-0.90;nan;103333.38;10318050;28;20038;-88
2024/01/27 23:19:22;;;;;;;35.03;17.40;;;;;;;-0.90;nan;103327.13;10333644;28;20057;-86
2024/01/27 23:24:23;;;;;;;31.53;15.43;;;;;;;-1.04;nan;103315.50;10314559;28;20046;-87
2024/01/27 23:29:23;;;;;;;37.97;18.73;;;;;;;-1.06;nan;103333.69;10308565;28;20050;-88